Terminal Aerodrome Forecast
Issued by NWS

Home | Current Version | Previous Version | Text Only | Print | Product List | Glossary On
Versions: 1 2 3 4 5 6 7 8 9 10 11 12 13 14 15 16
557
FTUS46 KLOX 241740
TAFWJF
TAF
KWJF 241740Z 2418/2518 30006KT P6SM SKC
     FM242000 23014G20KT P6SM SKC
     FM242300 24022G30KT P6SM SKC
     FM250300 25018G23KT P6SM SKC=

USA.gov is the U.S. government's official web portal to all federal, state and local government web resources and services.